createdAt,value
2022-11-26T00:00:53.430Z,46.50
2022-11-26T00:03:21.599Z,44.40
2022-11-26T00:05:52.673Z,44.23
2022-11-26T00:08:23.177Z,45.03
2022-11-26T00:10:53.581Z,45.10
2022-11-26T00:13:24.692Z,46.20
2022-11-26T00:15:53.080Z,47.20
2022-11-26T00:18:23.375Z,44.90
2022-11-26T00:20:55.556Z,46.43
2022-11-26T00:23:24.777Z,45.63
2022-11-26T00:25:56.043Z,44.37
2022-11-26T00:28:31.306Z,44.53
2022-11-26T00:31:00.580Z,44.70
2022-11-26T00:33:29.527Z,45.30
2022-11-26T00:36:00.157Z,46.60
2022-11-26T00:38:28.259Z,44.00
2022-11-26T00:40:56.134Z,45.40
2022-11-26T00:43:23.689Z,45.83
2022-11-26T00:45:52.792Z,43.17
2022-11-26T00:48:20.499Z,46.13
2022-11-26T00:50:51.611Z,43.70
2022-11-26T00:53:21.951Z,43.07
2022-11-26T00:55:51.572Z,45.07
2022-11-26T00:58:25.566Z,45.20
2022-11-26T01:03:30.875Z,46.10
2022-11-26T01:05:59.917Z,47.83
2022-11-26T01:08:31.104Z,46.80
2022-11-26T01:10:59.157Z,44.60
2022-11-26T01:13:27.045Z,46.37
2022-11-26T01:15:56.101Z,47.53
2022-11-26T01:18:24.985Z,47.27
2022-11-26T01:20:53.901Z,47.33
2022-11-26T01:23:21.794Z,46.23
2022-11-26T01:25:49.516Z,47.90
2022-11-26T01:28:20.161Z,47.07
2022-11-26T01:30:47.825Z,44.90
2022-11-26T01:33:15.485Z,44.63
2022-11-26T01:35:43.061Z,45.40
2022-11-26T01:38:14.359Z,45.80
2022-11-26T01:41:00.456Z,45.80
2022-11-26T01:43:30.380Z,45.00
2022-11-26T01:45:58.535Z,45.60
2022-11-26T01:48:31.859Z,47.73
2022-11-26T01:51:03.596Z,48.20
2022-11-26T01:53:38.060Z,48.00
2022-11-26T01:56:14.882Z,45.80
2022-11-26T01:58:47.406Z,44.80
2022-11-26T02:01:15.229Z,44.53
2022-11-26T02:03:49.486Z,44.70
2022-11-26T02:06:21.752Z,43.40
2022-11-26T02:08:50.640Z,46.07
2022-11-26T02:11:20.739Z,45.57
2022-11-26T02:13:51.710Z,48.63
2022-11-26T02:16:27.472Z,45.80
2022-11-26T02:19:13.953Z,49.13
2022-11-26T02:21:52.781Z,47.83
2022-11-26T02:24:44.409Z,51.20
2022-11-26T02:27:54.985Z,45.77
2022-11-26T02:30:23.944Z,47.20
2022-11-26T02:32:59.202Z,55.43
2022-11-26T02:35:33.838Z,47.40
2022-11-26T02:38:06.237Z,58.20
2022-11-26T02:40:33.792Z,55.83
2022-11-26T02:43:01.482Z,50.00
2022-11-26T02:45:35.037Z,51.13
2022-11-26T02:48:05.075Z,45.90
2022-11-26T02:50:40.376Z,47.87
2022-11-26T02:53:09.512Z,61.70
2022-11-26T02:55:42.378Z,59.53
2022-11-26T02:58:10.050Z,49.50
2022-11-26T03:00:42.866Z,53.00
2022-11-26T03:03:22.832Z,45.93
2022-11-26T03:05:53.961Z,48.13
2022-11-26T03:08:22.229Z,42.03
2022-11-26T03:10:49.829Z,46.00
2022-11-26T03:13:17.505Z,45.10
2022-11-26T03:15:46.593Z,42.87
2022-11-26T03:18:14.152Z,49.70
2022-11-26T03:20:41.779Z,48.30
2022-11-26T03:23:09.328Z,48.93
2022-11-26T03:25:37.212Z,52.87
2022-11-26T03:28:05.492Z,52.20
2022-11-26T03:30:33.404Z,54.17
2022-11-26T03:33:02.333Z,55.27
2022-11-26T03:35:30.069Z,45.03
2022-11-26T03:37:57.660Z,50.80
2022-11-26T03:40:25.280Z,47.37
2022-11-26T03:42:52.831Z,53.90
2022-11-26T03:45:20.464Z,54.70
2022-11-26T03:47:48.073Z,46.80
2022-11-26T03:50:16.986Z,47.00
2022-11-26T03:52:44.566Z,45.83
2022-11-26T03:55:12.161Z,48.47
2022-11-26T03:57:39.852Z,45.20
2022-11-26T04:00:09.161Z,46.10
2022-11-26T04:02:37.160Z,46.33
2022-11-26T04:05:05.852Z,54.43
2022-11-26T04:07:34.847Z,47.20
2022-11-26T04:10:02.478Z,45.30
2022-11-26T04:12:30.068Z,44.27
2022-11-26T04:14:57.622Z,44.37
2022-11-26T04:17:25.181Z,43.30
2022-11-26T04:19:53.007Z,43.30
2022-11-26T04:22:20.553Z,41.13
2022-11-26T04:24:49.499Z,47.47
2022-11-26T04:27:17.157Z,48.50
2022-11-26T04:29:44.749Z,48.40
2022-11-26T04:32:12.416Z,44.97
2022-11-26T04:34:40.220Z,43.30
2022-11-26T04:37:07.885Z,43.30
2022-11-26T04:39:35.436Z,41.90
2022-11-26T04:42:04.332Z,45.03
2022-11-26T04:44:31.896Z,43.30
2022-11-26T04:46:59.509Z,43.70
2022-11-26T04:49:27.297Z,42.17
2022-11-26T04:51:54.868Z,43.70
2022-11-26T04:54:22.413Z,41.90
2022-11-26T04:56:50.396Z,51.33
2022-11-26T04:59:19.324Z,45.70
2022-11-26T05:01:46.944Z,46.30
2022-11-26T05:04:14.553Z,42.40
2022-11-26T05:06:42.128Z,41.03
2022-11-26T05:09:09.864Z,43.97
2022-11-26T05:11:37.444Z,49.03
2022-11-26T05:14:05.236Z,44.60
2022-11-26T05:16:34.223Z,49.07
2022-11-26T05:19:01.864Z,51.17
2022-11-26T05:21:29.436Z,45.87
2022-11-26T05:23:57.009Z,46.10
2022-11-26T05:26:24.568Z,46.40
2022-11-26T05:28:52.206Z,50.97
2022-11-26T05:31:19.830Z,45.93
2022-11-26T05:33:48.808Z,47.77
2022-11-26T05:36:16.380Z,53.33
2022-11-26T05:38:43.943Z,49.83
2022-11-26T05:41:11.492Z,47.83
2022-11-26T05:43:39.178Z,53.13
2022-11-26T05:46:07.665Z,52.60
2022-11-26T05:48:35.553Z,54.13
2022-11-26T05:51:04.544Z,51.90
2022-11-26T05:53:32.185Z,50.30
2022-11-26T05:56:00.032Z,58.07
2022-11-26T05:58:27.852Z,52.00
2022-11-26T06:00:55.571Z,61.60
2022-11-26T06:03:23.294Z,52.53
2022-11-26T06:05:51.070Z,54.97
2022-11-26T06:08:19.973Z,54.73
2022-11-26T06:10:47.545Z,52.37
2022-11-26T06:13:15.296Z,56.20
2022-11-26T06:15:42.836Z,60.00
2022-11-26T06:18:10.388Z,64.57
2022-11-26T06:20:38.428Z,70.13
2022-11-26T06:23:06.249Z,66.30
2022-11-26T06:25:35.221Z,60.70
2022-11-26T06:28:02.817Z,57.27
2022-11-26T06:30:30.370Z,64.93
2022-11-26T06:32:57.959Z,59.23
2022-11-26T06:35:25.542Z,56.27
2022-11-26T06:37:53.140Z,58.03
2022-11-26T06:40:21.616Z,56.50
2022-11-26T06:42:51.313Z,54.03
2022-11-26T06:45:19.331Z,56.30
2022-11-26T06:47:47.534Z,54.60
2022-11-26T06:50:15.197Z,57.53
2022-11-26T06:52:43.010Z,56.70
2022-11-26T06:55:11.156Z,60.63
2022-11-26T06:57:38.824Z,54.47
2022-11-26T07:00:09.326Z,56.77
2022-11-26T07:02:40.421Z,58.53
2022-11-26T07:05:08.640Z,55.97
2022-11-26T07:07:38.144Z,56.17
2022-11-26T07:10:06.945Z,55.93
2022-11-26T07:12:34.549Z,54.53
2022-11-26T07:15:02.327Z,54.70
2022-11-26T07:17:31.236Z,59.03
2022-11-26T07:19:58.824Z,56.87
2022-11-26T07:22:26.399Z,56.07
2022-11-26T07:24:53.963Z,59.10
2022-11-26T07:27:21.524Z,57.67
2022-11-26T07:29:49.062Z,56.80
2022-11-26T07:32:16.620Z,59.80
2022-11-26T07:34:45.487Z,54.57
2022-11-26T07:37:13.035Z,57.37
2022-11-26T07:39:40.595Z,60.07
2022-11-26T07:42:08.196Z,58.77
2022-11-26T07:44:36.038Z,56.73
2022-11-26T07:47:04.341Z,56.60
2022-11-26T07:49:31.946Z,56.07
2022-11-26T07:52:00.815Z,57.80
2022-11-26T07:54:28.394Z,58.27
2022-11-26T07:56:56.317Z,55.47
2022-11-26T07:59:24.044Z,54.33
2022-11-26T08:01:51.757Z,55.77
2022-11-26T08:04:19.351Z,56.97
2022-11-26T08:06:46.927Z,57.63
2022-11-26T08:09:16.066Z,58.80
2022-11-26T08:11:43.622Z,59.60
2022-11-26T08:14:12.912Z,60.27
2022-11-26T08:16:40.695Z,60.43
2022-11-26T08:19:12.431Z,62.70
2022-11-26T08:21:40.583Z,63.10
2022-11-26T08:24:12.555Z,59.97
2022-11-26T08:26:44.171Z,61.43
2022-11-26T08:29:12.535Z,62.00
2022-11-26T08:31:45.107Z,61.13
2022-11-26T08:34:15.333Z,64.57
2022-11-26T08:36:43.662Z,63.77
2022-11-26T08:39:13.610Z,66.63
2022-11-26T08:41:46.057Z,68.57
2022-11-26T08:44:16.528Z,64.40
2022-11-26T08:46:44.081Z,72.90
2022-11-26T08:49:14.701Z,66.60
2022-11-26T08:51:43.328Z,71.33
2022-11-26T08:54:11.185Z,67.53
2022-11-26T08:56:38.784Z,68.70
2022-11-26T08:59:07.742Z,67.00
2022-11-26T09:01:35.374Z,66.97
2022-11-26T09:04:04.559Z,66.83
2022-11-26T09:06:33.922Z,68.23
2022-11-26T09:09:14.913Z,70.30
2022-11-26T09:11:45.388Z,70.73
2022-11-26T09:14:16.133Z,71.37
2022-11-26T09:16:43.989Z,72.70
2022-11-26T09:19:13.957Z,73.60
2022-11-26T09:21:41.534Z,75.60
2022-11-26T09:24:09.165Z,71.50
2022-11-26T09:26:37.306Z,72.33
2022-11-26T09:29:05.361Z,74.90
2022-11-26T09:31:34.384Z,73.80
2022-11-26T09:34:03.409Z,68.63
2022-11-26T09:36:30.981Z,69.87
2022-11-26T09:39:00.272Z,73.70
2022-11-26T09:41:41.901Z,74.23
2022-11-26T09:44:20.714Z,73.60
2022-11-26T09:47:11.562Z,72.70
2022-11-26T09:49:54.388Z,76.17
2022-11-26T09:52:25.153Z,72.77
2022-11-26T09:55:00.512Z,74.03
2022-11-26T09:57:32.596Z,73.23
2022-11-26T10:00:00.185Z,71.13
2022-11-26T10:02:29.159Z,69.47
2022-11-26T10:04:56.782Z,73.70
2022-11-26T10:07:36.424Z,77.80
2022-11-26T10:10:13.642Z,75.50
2022-11-26T10:13:17.508Z,69.77
2022-11-26T10:15:47.016Z,71.47
2022-11-26T10:18:22.729Z,71.90
2022-11-26T10:21:08.081Z,74.50
2022-11-26T10:23:41.273Z,75.67
2022-11-26T10:26:15.046Z,74.83
2022-11-26T10:28:46.303Z,81.10
2022-11-26T10:31:22.044Z,82.80
2022-11-26T10:33:56.194Z,87.43
2022-11-26T10:36:27.235Z,86.40
2022-11-26T10:38:56.831Z,86.90
2022-11-26T10:41:27.149Z,89.47
2022-11-26T10:43:54.731Z,89.20
2022-11-26T10:46:34.422Z,91.77
2022-11-26T10:49:24.361Z,95.00
2022-11-26T10:51:54.611Z,95.77
2022-11-26T10:54:27.152Z,90.90
2022-11-26T10:56:55.301Z,89.83
2022-11-26T10:59:27.272Z,84.63
2022-11-26T11:01:57.822Z,87.20
2022-11-26T11:04:31.945Z,80.43
2022-11-26T11:07:00.066Z,79.33
2022-11-26T11:09:33.851Z,81.23
2022-11-26T11:12:22.765Z,74.93
2022-11-26T11:14:51.423Z,79.43
2022-11-26T11:17:35.765Z,78.50
2022-11-26T11:20:26.771Z,75.87
2022-11-26T11:23:04.292Z,105.40
2022-11-26T11:25:34.360Z,99.87
2022-11-26T11:28:10.497Z,77.30
2022-11-26T11:30:42.237Z,74.80
2022-11-26T11:33:21.128Z,76.77
2022-11-26T11:36:01.532Z,73.53
2022-11-26T11:38:31.306Z,74.03
2022-11-26T11:41:00.177Z,70.30
2022-11-26T11:43:28.539Z,72.50
2022-11-26T11:46:14.635Z,74.43
2022-11-26T11:48:54.692Z,75.70
2022-11-26T11:51:34.393Z,74.93
2022-11-26T11:54:13.528Z,66.80
2022-11-26T11:56:42.830Z,67.20
2022-11-26T11:59:25.337Z,67.70
2022-11-26T12:02:14.192Z,64.27
2022-11-26T12:04:58.306Z,62.70
2022-11-26T12:07:48.624Z,60.03
2022-11-26T12:10:25.325Z,61.23
2022-11-26T12:12:56.180Z,57.67
2022-11-26T12:15:27.700Z,57.53
2022-11-26T12:18:01.650Z,59.27
2022-11-26T12:20:34.753Z,56.63
2022-11-26T12:23:22.648Z,56.17
2022-11-26T12:25:54.374Z,53.80
2022-11-26T12:28:26.609Z,55.07
2022-11-26T12:30:59.274Z,55.00
2022-11-26T12:33:31.224Z,55.03
2022-11-26T12:36:06.318Z,55.97
2022-11-26T12:38:40.939Z,55.90
2022-11-26T12:41:12.180Z,55.70
2022-11-26T12:43:49.277Z,54.80
2022-11-26T12:46:20.782Z,54.80
2022-11-26T12:48:55.009Z,56.37
2022-11-26T12:51:32.501Z,56.40
2022-11-26T12:54:13.700Z,55.43
2022-11-26T12:56:47.564Z,54.23
2022-11-26T12:59:23.203Z,55.87
2022-11-26T13:01:51.675Z,56.47
2022-11-26T13:04:37.233Z,56.30
2022-11-26T13:07:13.916Z,55.30
2022-11-26T13:09:59.146Z,56.73
2022-11-26T13:12:34.983Z,56.87
2022-11-26T13:15:14.794Z,58.50
2022-11-26T13:17:44.496Z,58.43
2022-11-26T13:20:32.129Z,58.47
2022-11-26T13:23:15.457Z,59.30
2022-11-26T13:26:00.753Z,62.13
2022-11-26T13:28:45.569Z,63.87
2022-11-26T13:31:33.411Z,63.13
2022-11-26T13:34:15.798Z,62.67
2022-11-26T13:37:18.728Z,62.93
2022-11-26T13:40:15.321Z,64.43
2022-11-26T13:43:03.957Z,63.47
2022-11-26T13:45:51.195Z,64.57
2022-11-26T13:48:24.110Z,66.67
2022-11-26T13:50:58.249Z,68.90
2022-11-26T13:53:31.982Z,66.73
2022-11-26T13:56:02.832Z,71.00
2022-11-26T13:58:36.800Z,71.80
2022-11-26T14:01:35.399Z,69.60
2022-11-26T14:04:04.433Z,66.10
2022-11-26T14:06:32.301Z,69.13
2022-11-26T14:09:00.059Z,71.67
2022-11-26T14:11:56.752Z,65.50
2022-11-26T14:14:39.308Z,64.67
2022-11-26T14:17:15.972Z,70.60
2022-11-26T14:20:06.257Z,65.70
2022-11-26T14:22:35.825Z,64.40
2022-11-26T14:25:09.160Z,66.43
2022-11-26T14:27:40.132Z,61.73
2022-11-26T14:30:28.470Z,63.10
2022-11-26T14:33:06.806Z,63.07
2022-11-26T14:35:36.188Z,60.93
2022-11-26T14:38:06.679Z,68.00
2022-11-26T14:40:36.476Z,59.27
2022-11-26T14:43:08.944Z,64.57
2022-11-26T14:45:37.989Z,66.53
2022-11-26T14:48:06.894Z,61.63
2022-11-26T14:50:36.960Z,63.20
2022-11-26T14:53:07.732Z,64.30
2022-11-26T14:55:35.906Z,64.80
2022-11-26T14:58:09.643Z,75.00
2022-11-26T15:00:38.868Z,72.53
2022-11-26T15:03:23.325Z,82.00
2022-11-26T15:05:50.915Z,77.97
2022-11-26T15:08:20.523Z,80.60
2022-11-26T15:10:52.429Z,83.90
2022-11-26T15:13:25.734Z,87.80
2022-11-26T15:15:56.789Z,86.80
2022-11-26T15:18:29.467Z,88.50
2022-11-26T15:20:57.355Z,81.57
2022-11-26T15:23:30.777Z,82.10
2022-11-26T15:25:59.341Z,86.17
2022-11-26T15:28:27.173Z,94.70
2022-11-26T15:30:58.757Z,97.40
2022-11-26T15:33:27.744Z,89.07
2022-11-26T15:35:57.625Z,89.77
2022-11-26T15:38:27.585Z,101.77
2022-11-26T15:40:57.996Z,87.63
2022-11-26T15:43:31.686Z,93.00
2022-11-26T15:46:03.643Z,85.57
2022-11-26T15:48:51.565Z,81.97
2022-11-26T15:51:24.952Z,84.73
2022-11-26T15:53:53.368Z,90.93
2022-11-26T15:56:23.776Z,85.57
2022-11-26T15:58:55.182Z,88.67
2022-11-26T16:01:27.131Z,87.97
2022-11-26T16:03:55.748Z,86.47
2022-11-26T16:06:28.849Z,91.70
2022-11-26T16:09:03.056Z,87.13
2022-11-26T16:11:34.260Z,84.57
2022-11-26T16:14:23.763Z,86.07
2022-11-26T16:16:53.540Z,89.57
2022-11-26T16:19:22.668Z,91.60
2022-11-26T16:21:51.881Z,89.23
2022-11-26T16:24:27.713Z,89.10
2022-11-26T16:26:58.365Z,89.83
2022-11-26T16:29:26.649Z,87.97
2022-11-26T16:31:56.401Z,94.40
2022-11-26T16:34:26.633Z,96.10
2022-11-26T16:37:01.788Z,86.77
2022-11-26T16:39:31.444Z,90.27
2022-11-26T16:42:00.412Z,92.23
2022-11-26T16:44:28.003Z,96.43
2022-11-26T16:46:57.184Z,92.07
2022-11-26T16:49:26.036Z,92.60
2022-11-26T16:51:53.653Z,93.60
2022-11-26T16:54:21.236Z,95.07
2022-11-26T16:56:50.712Z,101.93
2022-11-26T16:59:29.377Z,90.37
2022-11-26T17:01:58.409Z,94.63
2022-11-26T17:04:26.024Z,89.80
2022-11-26T17:06:53.700Z,94.60
2022-11-26T17:09:21.420Z,96.33
2022-11-26T17:11:48.952Z,92.47
2022-11-26T17:14:16.534Z,98.27
2022-11-26T17:16:44.221Z,95.77
2022-11-26T17:19:15.096Z,93.40
2022-11-26T17:21:42.913Z,97.00
2022-11-26T17:24:10.477Z,89.63
2022-11-26T17:26:38.060Z,93.83
2022-11-26T17:29:05.643Z,93.83
2022-11-26T17:31:33.466Z,92.20
2022-11-26T17:34:01.052Z,93.13
2022-11-26T17:36:36.492Z,88.20
2022-11-26T17:39:05.010Z,90.77
2022-11-26T17:41:32.592Z,87.70
2022-11-26T17:44:00.148Z,90.57
2022-11-26T17:46:27.770Z,85.67
2022-11-26T17:48:59.606Z,85.30
2022-11-26T17:51:27.673Z,88.30
2022-11-26T17:53:56.604Z,83.47
2022-11-26T17:56:26.816Z,87.93
2022-11-26T17:58:54.585Z,88.43
2022-11-26T18:01:22.507Z,94.03
2022-11-26T18:03:52.288Z,93.77
2022-11-26T18:06:27.227Z,86.70
2022-11-26T18:08:56.112Z,88.43
2022-11-26T18:11:43.016Z,86.23
2022-11-26T18:14:11.059Z,87.90
2022-11-26T18:16:39.318Z,84.63
2022-11-26T18:19:07.845Z,87.30
2022-11-26T18:21:35.376Z,82.13
2022-11-26T18:24:04.665Z,79.70
2022-11-26T18:26:32.525Z,77.33
2022-11-26T18:29:01.676Z,78.13
2022-11-26T18:31:29.497Z,84.30
2022-11-26T18:33:57.457Z,76.73
2022-11-26T18:36:25.518Z,80.80
2022-11-26T18:38:53.537Z,76.40
2022-11-26T18:41:22.781Z,79.67
2022-11-26T18:43:50.360Z,79.90
2022-11-26T18:46:19.018Z,83.77
2022-11-26T18:48:48.448Z,85.73
2022-11-26T18:51:16.880Z,82.13
2022-11-26T18:53:45.285Z,85.00
2022-11-26T18:56:15.076Z,90.57
2022-11-26T18:58:44.774Z,90.97
2022-11-26T19:01:13.974Z,89.10
2022-11-26T19:03:44.044Z,92.60
2022-11-26T19:06:15.259Z,94.87
2022-11-26T19:08:42.889Z,93.40
2022-11-26T19:11:11.380Z,95.43
2022-11-26T19:13:39.189Z,101.93
2022-11-26T19:16:16.699Z,102.27
2022-11-26T19:18:45.268Z,108.70
2022-11-26T19:21:18.720Z,103.30
2022-11-26T19:23:46.506Z,109.87
2022-11-26T19:26:14.963Z,103.67
2022-11-26T19:28:42.673Z,104.17
2022-11-26T19:31:13.602Z,125.83
2022-11-26T19:33:41.877Z,126.30
2022-11-26T19:36:12.858Z,116.03
2022-11-26T19:38:40.810Z,115.67
2022-11-26T19:41:08.420Z,108.30
2022-11-26T19:43:37.601Z,119.43
2022-11-26T19:46:06.506Z,116.40
2022-11-26T19:48:37.257Z,114.00
2022-11-26T19:51:05.728Z,130.90
2022-11-26T19:53:34.293Z,127.17
2022-11-26T19:56:03.606Z,129.47
2022-11-26T19:58:35.302Z,130.93
2022-11-26T20:01:03.291Z,120.07
2022-11-26T20:03:37.055Z,131.27
2022-11-26T20:06:08.600Z,129.90
2022-11-26T20:08:38.158Z,137.03
2022-11-26T20:11:07.832Z,143.77
2022-11-26T20:13:36.824Z,128.93
2022-11-26T20:16:06.739Z,132.50
2022-11-26T20:18:34.524Z,130.67
2022-11-26T20:21:06.517Z,148.87
2022-11-26T20:23:34.101Z,135.73
2022-11-26T20:26:02.014Z,132.10
2022-11-26T20:28:29.847Z,138.90
2022-11-26T20:30:57.463Z,132.30
2022-11-26T20:33:25.091Z,134.97
2022-11-26T20:35:52.683Z,127.53
2022-11-26T20:38:21.648Z,132.30
2022-11-26T20:40:49.233Z,133.07
2022-11-26T20:43:16.810Z,127.53
2022-11-26T20:45:44.428Z,130.53
2022-11-26T20:48:12.041Z,124.00
2022-11-26T20:50:39.625Z,128.90
2022-11-26T20:53:07.233Z,132.33
2022-11-26T20:55:36.181Z,124.10
2022-11-26T20:58:03.768Z,123.90
2022-11-26T21:00:31.316Z,124.50
2022-11-26T21:03:00.794Z,125.40
2022-11-26T21:05:28.364Z,120.83
2022-11-26T21:07:56.001Z,129.30
2022-11-26T21:10:26.248Z,119.27
2022-11-26T21:12:55.292Z,123.10
2022-11-26T21:15:23.524Z,130.47
2022-11-26T21:17:51.251Z,120.50
2022-11-26T21:20:18.947Z,128.63
2022-11-26T21:22:46.499Z,128.20
2022-11-26T21:25:14.044Z,142.00
2022-11-26T21:27:41.609Z,133.97
2022-11-26T21:30:11.852Z,136.27
2022-11-26T21:32:39.395Z,136.47
2022-11-26T21:35:07.608Z,136.00
2022-11-26T21:37:35.182Z,136.30
2022-11-26T21:40:02.941Z,143.60
2022-11-26T21:42:31.194Z,140.90
2022-11-26T21:44:58.757Z,151.50
2022-11-26T21:47:27.684Z,136.20
2022-11-26T21:49:55.237Z,145.90
2022-11-26T21:52:22.767Z,149.37
2022-11-26T21:54:50.342Z,153.37
2022-11-26T21:57:17.989Z,148.37
2022-11-26T21:59:45.586Z,158.10
2022-11-26T22:02:14.033Z,166.07
2022-11-26T22:04:42.990Z,157.70
2022-11-26T22:07:10.627Z,150.20
2022-11-26T22:09:38.591Z,168.90
2022-11-26T22:12:08.167Z,150.07
2022-11-26T22:14:35.982Z,160.77
2022-11-26T22:17:04.037Z,160.53
2022-11-26T22:19:32.048Z,177.10
2022-11-26T22:22:00.953Z,159.57
2022-11-26T22:24:28.528Z,164.37
2022-11-26T22:26:56.668Z,179.37
2022-11-26T22:29:24.484Z,172.60
2022-11-26T22:31:52.080Z,164.30
2022-11-26T22:34:21.766Z,186.07
2022-11-26T22:36:49.344Z,168.17
2022-11-26T22:39:19.986Z,182.33
2022-11-26T22:41:49.216Z,173.37
2022-11-26T22:44:17.411Z,183.60
2022-11-26T22:46:45.654Z,191.07
2022-11-26T22:49:14.623Z,175.13
2022-11-26T22:51:42.712Z,186.67
2022-11-26T22:54:13.447Z,176.90
2022-11-26T22:56:42.830Z,186.50
2022-11-26T22:59:13.266Z,192.50
2022-11-26T23:01:41.185Z,180.03
2022-11-26T23:04:10.308Z,201.73
2022-11-26T23:06:40.077Z,187.93
2022-11-26T23:09:09.770Z,203.97
2022-11-26T23:11:40.352Z,202.93
2022-11-26T23:14:11.770Z,192.73
2022-11-26T23:16:41.668Z,192.87
2022-11-26T23:19:09.829Z,199.63
2022-11-26T23:21:40.153Z,204.70
2022-11-26T23:24:08.705Z,208.57
2022-11-26T23:26:38.196Z,189.90
2022-11-26T23:29:06.858Z,196.57
2022-11-26T23:31:37.851Z,202.30
2022-11-26T23:34:06.357Z,193.50
2022-11-26T23:36:35.080Z,185.87
2022-11-26T23:39:04.702Z,191.43
2022-11-26T23:41:32.452Z,196.60
2022-11-26T23:44:00.123Z,193.20
2022-11-26T23:46:29.439Z,184.97
2022-11-26T23:48:58.823Z,193.13
2022-11-26T23:51:28.297Z,195.00
2022-11-26T23:53:56.193Z,191.40
2022-11-26T23:56:25.769Z,188.60
2022-11-26T23:58:55.628Z,187.07
